sensor_id;sensor_type;location;lat;lon;timestamp;pressure;altitude;pressure_sealevel;temperature;humidity
6599;BME280;3335;43.198;27.918;2022-12-29T00:00:19;148104.34;;;3.27;100.00
6599;BME280;3335;43.198;27.918;2022-12-29T00:02:46;148094.34;;;3.23;100.00
6599;BME280;3335;43.198;27.918;2022-12-29T00:05:13;148086.91;;;3.20;100.00
6599;BME280;3335;43.198;27.918;2022-12-29T00:07:40;148110.50;;;3.30;100.00
6599;BME280;3335;43.198;27.918;2022-12-29T00:10:07;148106.78;;;3.28;100.00
6599;BME280;3335;43.198;27.918;2022-12-29T00:12:34;148106.78;;;3.28;100.00
6599;BME280;3335;43.198;27.918;2022-12-29T00:15:20;148060.81;;;3.09;100.00
6599;BME280;3335;43.198;27.918;2022-12-29T00:18:05;148110.50;;;3.30;100.00
6599;BME280;3335;43.198;27.918;2022-12-29T00:20:33;148086.91;;;3.20;100.00
6599;BME280;3335;43.198;27.918;2022-12-29T00:23:18;148067.06;;;3.12;100.00
6599;BME280;3335;43.198;27.918;2022-12-29T00:26:03;148049.66;;;3.05;100.00
6599;BME280;3335;43.198;27.918;2022-12-29T00:28:48;148058.38;;;3.08;100.00
6599;BME280;3335;43.198;27.918;2022-12-29T00:31:35;148054.63;;;3.07;100.00
6599;BME280;3335;43.198;27.918;2022-12-29T00:34:19;148055.88;;;3.07;100.00
6599;BME280;3335;43.198;27.918;2022-12-29T00:37:04;148073.25;;;3.15;100.00
6599;BME280;3335;43.198;27.918;2022-12-29T00:39:31;148099.34;;;3.25;100.00
6599;BME280;3335;43.198;27.918;2022-12-29T00:42:21;148106.78;;;3.28;100.00
6599;BME280;3335;43.198;27.918;2022-12-29T00:45:06;148121.69;;;3.34;100.00
6599;BME280;3335;43.198;27.918;2022-12-29T00:47:34;148134.13;;;3.39;100.00
6599;BME280;3335;43.198;27.918;2022-12-29T00:50:01;148098.09;;;3.25;100.00
6599;BME280;3335;43.198;27.918;2022-12-29T00:52:27;148104.34;;;3.27;100.00
6599;BME280;3335;43.198;27.918;2022-12-29T00:54:54;148114.25;;;3.31;100.00
6599;BME280;3335;43.198;27.918;2022-12-29T00:57:21;148047.22;;;3.04;100.00
6599;BME280;3335;43.198;27.918;2022-12-29T00:59:48;148089.41;;;3.21;100.00
6599;BME280;3335;43.198;27.918;2022-12-29T01:02:15;148081.97;;;3.18;100.00
6599;BME280;3335;43.198;27.918;2022-12-29T01:04:43;148096.84;;;3.24;100.00
6599;BME280;3335;43.198;27.918;2022-12-29T01:07:10;148084.41;;;3.19;100.00
6599;BME280;3335;43.198;27.918;2022-12-29T01:09:37;148072.00;;;3.14;100.00
6599;BME280;3335;43.198;27.918;2022-12-29T01:12:21;148081.97;;;3.18;100.00
6599;BME280;3335;43.198;27.918;2022-12-29T01:15:02;148059.59;;;3.09;100.00
6599;BME280;3335;43.198;27.918;2022-12-29T01:17:29;148054.63;;;3.07;100.00
6599;BME280;3335;43.198;27.918;2022-12-29T01:19:57;148029.78;;;2.97;100.00
6599;BME280;3335;43.198;27.918;2022-12-29T01:22:24;147975.19;;;2.75;100.00
6599;BME280;3335;43.198;27.918;2022-12-29T01:24:51;148034.78;;;2.99;100.00
6599;BME280;3335;43.198;27.918;2022-12-29T01:27:18;148047.22;;;3.04;100.00
6599;BME280;3335;43.198;27.918;2022-12-29T01:29:45;148037.22;;;3.00;100.00
6599;BME280;3335;43.198;27.918;2022-12-29T01:32:11;148007.44;;;2.88;100.00
6599;BME280;3335;43.198;27.918;2022-12-29T01:34:38;148007.44;;;2.88;100.00
6599;BME280;3335;43.198;27.918;2022-12-29T01:37:07;147990.03;;;2.81;100.00
6599;BME280;3335;43.198;27.918;2022-12-29T01:39:34;147980.13;;;2.77;100.00
6599;BME280;3335;43.198;27.918;2022-12-29T01:42:00;148001.22;;;2.85;100.00
6599;BME280;3335;43.198;27.918;2022-12-29T01:44:55;148024.81;;;2.95;100.00
6599;BME280;3335;43.198;27.918;2022-12-29T01:47:28;147843.59;;;2.21;100.00
6599;BME280;3335;43.198;27.918;2022-12-29T01:49:59;148042.22;;;3.02;100.00
6599;BME280;3335;43.198;27.918;2022-12-29T01:52:32;148050.91;;;3.05;100.00
6599;BME280;3335;43.198;27.918;2022-12-29T01:55:02;148029.78;;;2.97;100.00
6599;BME280;3335;43.198;27.918;2022-12-29T01:57:33;148054.63;;;3.07;100.00
6599;BME280;3335;43.198;27.918;2022-12-29T02:00:03;148052.16;;;3.06;100.00
6599;BME280;3335;43.198;27.918;2022-12-29T02:02:31;148048.41;;;3.04;100.00
6599;BME280;3335;43.198;27.918;2022-12-29T02:04:59;148043.47;;;3.02;100.00
6599;BME280;3335;43.198;27.918;2022-12-29T02:07:29;148019.88;;;2.93;100.00
6599;BME280;3335;43.198;27.918;2022-12-29T02:09:58;148034.78;;;2.99;100.00
6599;BME280;3335;43.198;27.918;2022-12-29T02:12:27;148036.00;;;2.99;100.00
6599;BME280;3335;43.198;27.918;2022-12-29T02:14:56;148004.97;;;2.87;100.00
6599;BME280;3335;43.198;27.918;2022-12-29T02:17:39;147980.13;;;2.77;100.00
6599;BME280;3335;43.198;27.918;2022-12-29T02:24:00;148024.81;;;2.95;100.00
6599;BME280;3335;43.198;27.918;2022-12-29T02:26:47;148018.63;;;2.92;100.00
6599;BME280;3335;43.198;27.918;2022-12-29T02:29:53;148002.47;;;2.86;100.00
6599;BME280;3335;43.198;27.918;2022-12-29T02:32:32;148013.63;;;2.90;100.00
6599;BME280;3335;43.198;27.918;2022-12-29T02:35:10;148002.47;;;2.86;100.00
6599;BME280;3335;43.198;27.918;2022-12-29T02:37:48;148029.78;;;2.97;100.00
6599;BME280;3335;43.198;27.918;2022-12-29T02:40:24;148048.41;;;3.04;100.00
6599;BME280;3335;43.198;27.918;2022-12-29T02:42:59;148039.72;;;3.01;100.00
6599;BME280;3335;43.198;27.918;2022-12-29T02:45:32;148032.28;;;2.98;100.00
6599;BME280;3335;43.198;27.918;2022-12-29T02:48:08;147995.03;;;2.83;100.00
6599;BME280;3335;43.198;27.918;2022-12-29T02:50:39;147823.75;;;2.13;100.00
6599;BME280;3335;43.198;27.918;2022-12-29T02:53:09;147961.50;;;2.69;100.00
6599;BME280;3335;43.198;27.918;2022-12-29T02:55:38;147828.69;;;2.15;100.00
6599;BME280;3335;43.198;27.918;2022-12-29T02:58:17;148022.38;;;2.94;100.00
6599;BME280;3335;43.198;27.918;2022-12-29T03:00:59;148002.47;;;2.86;100.00
6599;BME280;3335;43.198;27.918;2022-12-29T03:03:41;148007.44;;;2.88;100.00
6599;BME280;3335;43.198;27.918;2022-12-29T03:06:25;147797.69;;;2.02;100.00
6599;BME280;3335;43.198;27.918;2022-12-29T03:09:03;148003.72;;;2.86;100.00
6599;BME280;3335;43.198;27.918;2022-12-29T03:11:37;148012.44;;;2.90;100.00
6599;BME280;3335;43.198;27.918;2022-12-29T03:14:27;148018.63;;;2.92;100.00
6599;BME280;3335;43.198;27.918;2022-12-29T03:17:21;148029.78;;;2.97;100.00
6599;BME280;3335;43.198;27.918;2022-12-29T03:19:56;148027.31;;;2.96;100.00
6599;BME280;3335;43.198;27.918;2022-12-29T03:22:29;148047.22;;;3.04;100.00
6599;BME280;3335;43.198;27.918;2022-12-29T03:25:01;148037.22;;;3.00;100.00
6599;BME280;3335;43.198;27.918;2022-12-29T03:27:33;148037.22;;;3.00;100.00
6599;BME280;3335;43.198;27.918;2022-12-29T03:30:03;148034.78;;;2.99;100.00
6599;BME280;3335;43.198;27.918;2022-12-29T03:32:33;147995.03;;;2.83;100.00
6599;BME280;3335;43.198;27.918;2022-12-29T03:35:05;148002.47;;;2.86;100.00
6599;BME280;3335;43.198;27.918;2022-12-29T03:37:36;147998.78;;;2.84;100.00
6599;BME280;3335;43.198;27.918;2022-12-29T03:40:05;147988.84;;;2.80;100.00
6599;BME280;3335;43.198;27.918;2022-12-29T03:42:35;147918.09;;;2.51;100.00
6599;BME280;3335;43.198;27.918;2022-12-29T03:45:04;147959.03;;;2.68;100.00
6599;BME280;3335;43.198;27.918;2022-12-29T03:47:32;147694.72;;;1.60;100.00
6599;BME280;3335;43.198;27.918;2022-12-29T03:50:00;147957.78;;;2.68;100.00
6599;BME280;3335;43.198;27.918;2022-12-29T03:52:28;147952.84;;;2.66;100.00
6599;BME280;3335;43.198;27.918;2022-12-29T03:54:55;147955.28;;;2.67;100.00
6599;BME280;3335;43.198;27.918;2022-12-29T03:57:22;147930.50;;;2.56;100.00
6599;BME280;3335;43.198;27.918;2022-12-29T03:59:49;147940.41;;;2.60;100.00
6599;BME280;3335;43.198;27.918;2022-12-29T04:02:15;147923.03;;;2.53;100.00
6599;BME280;3335;43.198;27.918;2022-12-29T04:04:42;147932.94;;;2.57;100.00
6599;BME280;3335;43.198;27.918;2022-12-29T04:07:09;147893.25;;;2.41;100.00
6599;BME280;3335;43.198;27.918;2022-12-29T04:09:38;147880.84;;;2.36;100.00
6599;BME280;3335;43.198;27.918;2022-12-29T04:12:05;147853.50;;;2.25;100.00
6599;BME280;3335;43.198;27.918;2022-12-29T04:14:32;147851.03;;;2.24;100.00
6599;BME280;3335;43.198;27.918;2022-12-29T04:16:58;147833.69;;;2.17;100.00
6599;BME280;3335;43.198;27.918;2022-12-29T04:19:25;147877.09;;;2.35;100.00
6599;BME280;3335;43.198;27.918;2022-12-29T04:21:52;147838.63;;;2.19;100.00
6599;BME280;3335;43.198;27.918;2022-12-29T04:24:19;147852.28;;;2.25;100.00
6599;BME280;3335;43.198;27.918;2022-12-29T04:26:47;147796.44;;;2.02;100.00
6599;BME280;3335;43.198;27.918;2022-12-29T04:29:14;147868.41;;;2.31;100.00
6599;BME280;3335;43.198;27.918;2022-12-29T04:31:41;147863.44;;;2.29;100.00
6599;BME280;3335;43.198;27.918;2022-12-29T04:34:08;147868.41;;;2.31;100.00
6599;BME280;3335;43.198;27.918;2022-12-29T04:36:35;147896.94;;;2.43;100.00
6599;BME280;3335;43.198;27.918;2022-12-29T04:39:02;147916.84;;;2.51;100.00
6599;BME280;3335;43.198;27.918;2022-12-29T04:41:30;147920.53;;;2.52;100.00
6599;BME280;3335;43.198;27.918;2022-12-29T04:43:58;147935.44;;;2.58;100.00
6599;BME280;3335;43.198;27.918;2022-12-29T04:46:25;147923.03;;;2.53;100.00
6599;BME280;3335;43.198;27.918;2022-12-29T04:48:52;147934.19;;;2.58;100.00
6599;BME280;3335;43.198;27.918;2022-12-29T04:51:19;147937.94;;;2.59;100.00
6599;BME280;3335;43.198;27.918;2022-12-29T04:53:46;147945.38;;;2.62;100.00
6599;BME280;3335;43.198;27.918;2022-12-29T04:56:13;147942.88;;;2.61;100.00
6599;BME280;3335;43.198;27.918;2022-12-29T04:58:40;147970.19;;;2.73;100.00
6599;BME280;3335;43.198;27.918;2022-12-29T05:01:08;147967.69;;;2.72;100.00
6599;BME280;3335;43.198;27.918;2022-12-29T05:03:35;147977.63;;;2.76;100.00
6599;BME280;3335;43.198;27.918;2022-12-29T05:06:02;147957.78;;;2.68;100.00
6599;BME280;3335;43.198;27.918;2022-12-29T05:08:29;147932.94;;;2.57;100.00
6599;BME280;3335;43.198;27.918;2022-12-29T05:10:56;147888.28;;;2.39;100.00
6599;BME280;3335;43.198;27.918;2022-12-29T05:13:23;147885.78;;;2.38;100.00
6599;BME280;3335;43.198;27.918;2022-12-29T05:15:50;147918.09;;;2.51;100.00
6599;BME280;3335;43.198;27.918;2022-12-29T05:18:19;147914.34;;;2.50;100.00
6599;BME280;3335;43.198;27.918;2022-12-29T05:20:46;147906.91;;;2.47;100.00
6599;BME280;3335;43.198;27.918;2022-12-29T05:23:14;147962.75;;;2.70;100.00
6599;BME280;3335;43.198;27.918;2022-12-29T05:25:40;147957.78;;;2.68;100.00
6599;BME280;3335;43.198;27.918;2022-12-29T05:28:07;147980.13;;;2.77;100.00
6599;BME280;3335;43.198;27.918;2022-12-29T05:30:34;147990.03;;;2.81;100.00
6599;BME280;3335;43.198;27.918;2022-12-29T05:33:01;147965.25;;;2.71;100.00
6599;BME280;3335;43.198;27.918;2022-12-29T05:35:29;147983.88;;;2.78;100.00
6599;BME280;3335;43.198;27.918;2022-12-29T05:37:56;147957.78;;;2.68;100.00
6599;BME280;3335;43.198;27.918;2022-12-29T05:40:23;147965.25;;;2.71;100.00
6599;BME280;3335;43.198;27.918;2022-12-29T05:42:50;147975.19;;;2.75;100.00
6599;BME280;3335;43.198;27.918;2022-12-29T05:45:17;147980.13;;;2.77;100.00
6599;BME280;3335;43.198;27.918;2022-12-29T05:47:44;147992.53;;;2.82;100.00
6599;BME280;3335;43.198;27.918;2022-12-29T05:50:11;148002.47;;;2.86;100.00
6599;BME280;3335;43.198;27.918;2022-12-29T05:52:39;148014.88;;;2.91;100.00
6599;BME280;3335;43.198;27.918;2022-12-29T05:55:07;148029.78;;;2.97;100.00
6599;BME280;3335;43.198;27.918;2022-12-29T05:57:34;148052.16;;;3.06;100.00
6599;BME280;3335;43.198;27.918;2022-12-29T06:00:01;148037.22;;;3.00;100.00
6599;BME280;3335;43.198;27.918;2022-12-29T06:02:28;148048.41;;;3.04;100.00
6599;BME280;3335;43.198;27.918;2022-12-29T06:04:55;148059.59;;;3.09;100.00
6599;BME280;3335;43.198;27.918;2022-12-29T06:07:22;147956.53;;;2.67;100.00
6599;BME280;3335;43.198;27.918;2022-12-29T06:09:50;148032.28;;;2.98;100.00
6599;BME280;3335;43.198;27.918;2022-12-29T06:12:17;148059.59;;;3.09;100.00
6599;BME280;3335;43.198;27.918;2022-12-29T06:14:44;148072.00;;;3.14;100.00
6599;BME280;3335;43.198;27.918;2022-12-29T06:17:11;148084.41;;;3.19;100.00
6599;BME280;3335;43.198;27.918;2022-12-29T06:19:38;147995.03;;;2.83;100.00
6599;BME280;3335;43.198;27.918;2022-12-29T06:22:05;148069.56;;;3.13;100.00
6599;BME280;3335;43.198;27.918;2022-12-29T06:24:32;148085.66;;;3.20;100.00
6599;BME280;3335;43.198;27.918;2022-12-29T06:27:01;148091.91;;;3.22;100.00
6599;BME280;3335;43.198;27.918;2022-12-29T06:29:28;148062.06;;;3.10;100.00
6599;BME280;3335;43.198;27.918;2022-12-29T06:31:55;148142.81;;;3.43;100.00
6599;BME280;3335;43.198;27.918;2022-12-29T06:34:23;147987.59;;;2.80;100.00
6599;BME280;3335;43.198;27.918;2022-12-29T06:36:50;148151.53;;;3.46;100.00
6599;BME280;3335;43.198;27.918;2022-12-29T06:39:17;148183.81;;;3.60;100.00
6599;BME280;3335;43.198;27.918;2022-12-29T06:41:44;148120.44;;;3.34;100.00
6599;BME280;3335;43.198;27.918;2022-12-29T06:44:12;148216.13;;;3.73;100.00
6599;BME280;3335;43.198;27.918;2022-12-29T06:46:39;148221.09;;;3.75;100.00
6599;BME280;3335;43.198;27.918;2022-12-29T06:49:06;148242.22;;;3.83;100.00
6599;BME280;3335;43.198;27.918;2022-12-29T06:51:33;148183.81;;;3.60;100.00
6599;BME280;3335;43.198;27.918;2022-12-29T06:54:00;148192.50;;;3.63;100.00
6599;BME280;3335;43.198;27.918;2022-12-29T06:56:27;148111.75;;;3.30;100.00
6599;BME280;3335;43.198;27.918;2022-12-29T06:58:54;148320.50;;;4.15;100.00
6599;BME280;3335;43.198;27.918;2022-12-29T07:01:22;148280.75;;;3.99;100.00
6599;BME280;3335;43.198;27.918;2022-12-29T07:03:49;148291.94;;;4.04;100.00
6599;BME280;3335;43.198;27.918;2022-12-29T07:06:16;148383.91;;;4.41;100.00
6599;BME280;3335;43.198;27.918;2022-12-29T07:08:43;148357.78;;;4.30;100.00
6599;BME280;3335;43.198;27.918;2022-12-29T07:11:10;148417.47;;;4.55;100.00
6599;BME280;3335;43.198;27.918;2022-12-29T07:13:37;148405.03;;;4.50;100.00
6599;BME280;3335;43.198;27.918;2022-12-29T07:16:08;148414.97;;;4.54;100.00
6599;BME280;3335;43.198;27.918;2022-12-29T07:18:36;148447.28;;;4.67;100.00
6599;BME280;3335;43.198;27.918;2022-12-29T07:21:04;148444.81;;;4.66;100.00
6599;BME280;3335;43.198;27.918;2022-12-29T07:23:31;148531.88;;;5.01;100.00
6599;BME280;3335;43.198;27.918;2022-12-29T07:25:59;148577.91;;;5.20;100.00
6599;BME280;3335;43.198;27.918;2022-12-29T07:28:27;148616.47;;;5.36;100.00
6599;BME280;3335;43.198;27.918;2022-12-29T07:30:54;148646.31;;;5.48;100.00
6599;BME280;3335;43.198;27.918;2022-12-29T07:33:21;148668.72;;;5.57;100.00
6599;BME280;3335;43.198;27.918;2022-12-29T07:35:50;148708.56;;;5.73;100.00
6599;BME280;3335;43.198;27.918;2022-12-29T07:38:17;148661.25;;;5.54;100.00
6599;BME280;3335;43.198;27.918;2022-12-29T07:40:43;148767.09;;;5.97;100.00
6599;BME280;3335;43.198;27.918;2022-12-29T07:43:10;148795.69;;;6.08;100.00
6599;BME280;3335;43.198;27.918;2022-12-29T07:45:37;148813.16;;;6.15;100.00
6599;BME280;3335;43.198;27.918;2022-12-29T07:48:05;148830.56;;;6.23;100.00
6599;BME280;3335;43.198;27.918;2022-12-29T07:50:33;148850.50;;;6.31;100.00
6599;BME280;3335;43.198;27.918;2022-12-29T07:53:01;148869.16;;;6.38;100.00
6599;BME280;3335;43.198;27.918;2022-12-29T07:55:28;148882.88;;;6.44;100.00
6599;BME280;3335;43.198;27.918;2022-12-29T07:57:56;148876.66;;;6.41;100.00
6599;BME280;3335;43.198;27.918;2022-12-29T08:00:23;148877.88;;;6.42;100.00
6599;BME280;3335;43.198;27.918;2022-12-29T08:02:50;148915.25;;;6.57;100.00
6599;BME280;3335;43.198;27.918;2022-12-29T08:05:17;148935.19;;;6.65;100.00
6599;BME280;3335;43.198;27.918;2022-12-29T08:07:45;148916.50;;;6.57;100.00
6599;BME280;3335;43.198;27.918;2022-12-29T08:10:14;148942.66;;;6.68;100.00
6599;BME280;3335;43.198;27.918;2022-12-29T08:12:41;148965.06;;;6.77;100.00
6599;BME280;3335;43.198;27.918;2022-12-29T08:15:10;148992.50;;;6.88;100.00
6599;BME280;3335;43.198;27.918;2022-12-29T08:17:38;149017.38;;;6.98;100.00
6599;BME280;3335;43.198;27.918;2022-12-29T08:20:05;149031.06;;;7.04;100.00
6599;BME280;3335;43.198;27.918;2022-12-29T08:22:32;149062.25;;;7.17;100.00
6599;BME280;3335;43.198;27.918;2022-12-29T08:24:59;149090.88;;;7.28;100.00
6599;BME280;3335;43.198;27.918;2022-12-29T08:27:28;149072.22;;;7.21;100.00
6599;BME280;3335;43.198;27.918;2022-12-29T08:29:55;149087.19;;;7.27;100.00
6599;BME280;3335;43.198;27.918;2022-12-29T08:32:22;149114.56;;;7.38;100.00
6599;BME280;3335;43.198;27.918;2022-12-29T08:34:49;149179.41;;;7.64;100.00
6599;BME280;3335;43.198;27.918;2022-12-29T08:37:16;148857.97;;;6.34;100.00
6599;BME280;3335;43.198;27.918;2022-12-29T08:39:43;149199.31;;;7.72;100.00
6599;BME280;3335;43.198;27.918;2022-12-29T08:42:10;149264.13;;;7.99;100.00
6599;BME280;3335;43.198;27.918;2022-12-29T08:44:38;149245.44;;;7.91;100.00
6599;BME280;3335;43.198;27.918;2022-12-29T08:47:05;149216.75;;;7.79;100.00
6599;BME280;3335;43.198;27.918;2022-12-29T08:49:33;149346.47;;;8.32;100.00
6599;BME280;3335;43.198;27.918;2022-12-29T08:52:00;149366.47;;;8.40;100.00
6599;BME280;3335;43.198;27.918;2022-12-29T08:54:27;149391.41;;;8.50;100.00
6599;BME280;3335;43.198;27.918;2022-12-29T08:56:54;149418.81;;;8.61;100.00
6599;BME280;3335;43.198;27.918;2022-12-29T08:59:22;149421.31;;;8.62;100.00
6599;BME280;3335;43.198;27.918;2022-12-29T09:01:50;149452.50;;;8.75;100.00
6599;BME280;3335;43.198;27.918;2022-12-29T09:04:17;149457.50;;;8.77;100.00
6599;BME280;3335;43.198;27.918;2022-12-29T09:06:44;149508.66;;;8.98;100.00
6599;BME280;3335;43.198;27.918;2022-12-29T09:09:11;149547.31;;;9.13;100.00
6599;BME280;3335;43.198;27.918;2022-12-29T09:11:38;149558.53;;;9.18;100.00
6599;BME280;3335;43.198;27.918;2022-12-29T09:14:06;149516.13;;;9.01;100.00
6599;BME280;3335;43.198;27.918;2022-12-29T09:16:33;149496.19;;;8.93;100.00
6599;BME280;3335;43.198;27.918;2022-12-29T09:19:02;149541.09;;;9.11;100.00
6599;BME280;3335;43.198;27.918;2022-12-29T09:21:29;149546.06;;;9.13;100.00
6599;BME280;3335;43.198;27.918;2022-12-29T09:23:56;149513.63;;;9.00;100.00
6599;BME280;3335;43.198;27.918;2022-12-29T09:26:23;149596.00;;;9.33;100.00
6599;BME280;3335;43.198;27.918;2022-12-29T09:28:50;149569.78;;;9.22;100.00
6599;BME280;3335;43.198;27.918;2022-12-29T09:31:17;149614.75;;;9.41;100.00
6599;BME280;3335;43.198;27.918;2022-12-29T09:33:43;149645.94;;;9.53;100.00
6599;BME280;3335;43.198;27.918;2022-12-29T09:36:12;149566.06;;;9.21;100.00
6599;BME280;3335;43.198;27.918;2022-12-29T09:38:39;149588.53;;;9.30;100.00
6599;BME280;3335;43.198;27.918;2022-12-29T09:41:12;149640.91;;;9.51;100.00
6599;BME280;3335;43.198;27.918;2022-12-29T09:43:58;149675.88;;;9.65;100.00
6599;BME280;3335;43.198;27.918;2022-12-29T09:46:27;149669.66;;;9.63;100.00
6599;BME280;3335;43.198;27.918;2022-12-29T09:49:04;149662.13;;;9.60;100.00
6599;BME280;3335;43.198;27.918;2022-12-29T09:51:36;149625.97;;;9.45;100.00
6599;BME280;3335;43.198;27.918;2022-12-29T09:54:20;149733.28;;;9.89;100.00
6599;BME280;3335;43.198;27.918;2022-12-29T09:56:49;149785.75;;;10.10;100.00
6599;BME280;3335;43.198;27.918;2022-12-29T09:59:20;149808.28;;;10.19;100.00
6599;BME280;3335;43.198;27.918;2022-12-29T10:01:55;149845.75;;;10.34;100.00
6599;BME280;3335;43.198;27.918;2022-12-29T10:04:26;149855.75;;;10.38;100.00
6599;BME280;3335;43.198;27.918;2022-12-29T10:06:58;149875.72;;;10.46;100.00
6599;BME280;3335;43.198;27.918;2022-12-29T10:09:34;149928.19;;;10.68;100.00
6599;BME280;3335;43.198;27.918;2022-12-29T10:12:14;149955.66;;;10.79;100.00
6599;BME280;3335;43.198;27.918;2022-12-29T10:14:53;149963.19;;;10.82;100.00
6599;BME280;3335;43.198;27.918;2022-12-29T10:17:29;150013.16;;;11.02;100.00
6599;BME280;3335;43.198;27.918;2022-12-29T10:20:14;149975.69;;;10.87;100.00
6599;BME280;3335;43.198;27.918;2022-12-29T10:22:57;150039.38;;;11.13;100.00
6599;BME280;3335;43.198;27.918;2022-12-29T10:25:30;150080.66;;;11.29;100.00
6599;BME280;3335;43.198;27.918;2022-12-29T10:28:01;150108.13;;;11.40;100.00
6599;BME280;3335;43.198;27.918;2022-12-29T10:30:32;150110.63;;;11.41;100.00
6599;BME280;3335;43.198;27.918;2022-12-29T10:33:02;150005.66;;;10.99;100.00
6599;BME280;3335;43.198;27.918;2022-12-29T10:35:34;150185.66;;;11.72;100.00
6599;BME280;3335;43.198;27.918;2022-12-29T10:38:13;150170.63;;;11.66;100.00
6599;BME280;3335;43.198;27.918;2022-12-29T10:40:45;150213.22;;;11.83;100.00
6599;BME280;3335;43.198;27.918;2022-12-29T10:43:24;150225.69;;;11.88;100.00
6599;BME280;3335;43.198;27.918;2022-12-29T10:45:52;150190.66;;;11.74;100.00
6599;BME280;3335;43.198;27.918;2022-12-29T10:48:21;150248.22;;;11.97;100.00
6599;BME280;3335;43.198;27.918;2022-12-29T10:50:50;150270.75;;;12.06;100.00
6599;BME280;3335;43.198;27.918;2022-12-29T10:53:24;150245.72;;;11.96;100.00
6599;BME280;3335;43.198;27.918;2022-12-29T10:55:53;150320.72;;;12.26;100.00
6599;BME280;3335;43.198;27.918;2022-12-29T10:58:22;150309.47;;;12.22;100.00
6599;BME280;3335;43.198;27.918;2022-12-29T11:00:51;150308.22;;;12.21;100.00
6599;BME280;3335;43.198;27.918;2022-12-29T11:03:42;150395.81;;;12.57;100.00
6599;BME280;3335;43.198;27.918;2022-12-29T11:06:16;150398.31;;;12.58;100.00
6599;BME280;3335;43.198;27.918;2022-12-29T11:08:50;150417.06;;;12.65;100.00
6599;BME280;3335;43.198;27.918;2022-12-29T11:11:23;150475.88;;;12.89;100.00
6599;BME280;3335;43.198;27.918;2022-12-29T11:13:56;150508.41;;;13.02;100.00
6599;BME280;3335;43.198;27.918;2022-12-29T11:16:32;150510.91;;;13.03;100.00
6599;BME280;3335;43.198;27.918;2022-12-29T11:18:59;150556.00;;;13.22;100.00
6599;BME280;3335;43.198;27.918;2022-12-29T11:21:31;150553.53;;;13.21;100.00
6599;BME280;3335;43.198;27.918;2022-12-29T11:24:02;150568.53;;;13.27;100.00
6599;BME280;3335;43.198;27.918;2022-12-29T11:26:29;150561.03;;;13.24;100.00
6599;BME280;3335;43.198;27.918;2022-12-29T11:29:17;150553.53;;;13.21;100.00
6599;BME280;3335;43.198;27.918;2022-12-29T11:31:49;150596.09;;;13.38;100.00
6599;BME280;3335;43.198;27.918;2022-12-29T11:34:21;150568.53;;;13.27;100.00
6599;BME280;3335;43.198;27.918;2022-12-29T11:36:51;150606.09;;;13.42;100.00
6599;BME280;3335;43.198;27.918;2022-12-29T11:39:29;150628.63;;;13.51;100.00
6599;BME280;3335;43.198;27.918;2022-12-29T11:41:57;150546.00;;;13.18;100.00
6599;BME280;3335;43.198;27.918;2022-12-29T11:44:26;150536.00;;;13.13;100.00
6599;BME280;3335;43.198;27.918;2022-12-29T11:46:54;150515.94;;;13.05;100.00
6599;BME280;3335;43.198;27.918;2022-12-29T11:49:23;150593.56;;;13.37;100.00
6599;BME280;3335;43.198;27.918;2022-12-29T11:51:52;150578.53;;;13.31;100.00
6599;BME280;3335;43.198;27.918;2022-12-29T11:54:25;150604.81;;;13.41;100.00
6599;BME280;3335;43.198;27.918;2022-12-29T11:56:54;150622.38;;;13.48;100.00
6599;BME280;3335;43.198;27.918;2022-12-29T11:59:40;150587.31;;;13.34;100.00
6599;BME280;3335;43.198;27.918;2022-12-29T12:02:40;150638.63;;;13.55;100.00
6599;BME280;3335;43.198;27.918;2022-12-29T12:05:21;150689.97;;;13.76;100.00
6599;BME280;3335;43.198;27.918;2022-12-29T12:07:55;150733.78;;;13.93;100.00
6599;BME280;3335;43.198;27.918;2022-12-29T12:10:28;150711.25;;;13.84;100.00
6599;BME280;3335;43.198;27.918;2022-12-29T12:13:02;150725.03;;;13.90;100.00
6599;BME280;3335;43.198;27.918;2022-12-29T12:15:36;150751.34;;;14.00;100.00
6599;BME280;3335;43.198;27.918;2022-12-29T12:18:09;150751.34;;;14.00;100.00
6599;BME280;3335;43.198;27.918;2022-12-29T12:20:43;150757.59;;;14.03;100.00
6599;BME280;3335;43.198;27.918;2022-12-29T12:23:25;150778.88;;;14.12;100.00
6599;BME280;3335;43.198;27.918;2022-12-29T12:26:00;150708.75;;;13.83;100.00
6599;BME280;3335;43.198;27.918;2022-12-29T12:28:36;150696.22;;;13.78;100.00
6599;BME280;3335;43.198;27.918;2022-12-29T12:31:06;150717.53;;;13.87;100.00
6599;BME280;3335;43.198;27.918;2022-12-29T12:33:43;150736.31;;;13.94;100.00
6599;BME280;3335;43.198;27.918;2022-12-29T12:36:24;150696.22;;;13.78;100.00
6599;BME280;3335;43.198;27.918;2022-12-29T12:39:00;150666.19;;;13.66;100.00
6599;BME280;3335;43.198;27.918;2022-12-29T12:41:37;150669.97;;;13.68;100.00
6599;BME280;3335;43.198;27.918;2022-12-29T12:44:15;150676.19;;;13.70;100.00
6599;BME280;3335;43.198;27.918;2022-12-29T12:47:12;150658.69;;;13.63;100.00
6599;BME280;3335;43.198;27.918;2022-12-29T12:53:05;150648.63;;;13.59;100.00
6599;BME280;3335;43.198;27.918;2022-12-29T12:55:45;150646.16;;;13.58;100.00
6599;BME280;3335;43.198;27.918;2022-12-29T12:58:22;150639.88;;;13.55;100.00
6599;BME280;3335;43.198;27.918;2022-12-29T13:01:03;150556.00;;;13.22;100.00
6599;BME280;3335;43.198;27.918;2022-12-29T13:03:45;150490.91;;;12.95;100.00
6599;BME280;3335;43.198;27.918;2022-12-29T13:06:20;150510.91;;;13.03;100.00
6599;BME280;3335;43.198;27.918;2022-12-29T13:11:51;150528.44;;;13.10;100.00
6599;BME280;3335;43.198;27.918;2022-12-29T13:14:30;150514.69;;;13.05;100.00
6599;BME280;3335;43.198;27.918;2022-12-29T13:17:13;150465.88;;;12.85;100.00
6599;BME280;3335;43.198;27.918;2022-12-29T13:19:47;150453.34;;;12.80;100.00
6599;BME280;3335;43.198;27.918;2022-12-29T13:22:23;150450.84;;;12.79;100.00
6599;BME280;3335;43.198;27.918;2022-12-29T13:25:01;150398.31;;;12.58;100.00
6599;BME280;3335;43.198;27.918;2022-12-29T13:27:39;150358.25;;;12.42;100.00